Time;durP1;ratioP1;P1;durP2;ratioP2;P2;SDS_P1;SDS_P2;PMS_P1;PMS_P2;Temp;Humidity;BMP_temperature;BMP_pressure;BME280_temperature;BME280_humidity;BME280_pressure;Samples;Min_cycle;Max_cycle;Signal;HPM_P1;HPM_P2
2021/11/27 00:02:04;;;;;;;21.70;11.95;;;;;;;2.76;84.51;95708.58;1674236;85;20967;-77
2021/11/27 00:04:30;;;;;;;19.50;11.90;;;;;;;2.70;84.76;95699.17;1669993;85;21002;-77
2021/11/27 00:06:57;;;;;;;20.35;11.90;;;;;;;2.64;85.27;95705.50;1653498;84;21009;-77
2021/11/27 00:09:24;;;;;;;23.62;12.30;;;;;;;2.58;84.90;95709.61;1681876;85;21030;-76
2021/11/27 00:11:50;;;;;;;20.70;11.80;;;;;;;2.54;88.19;95715.88;1680271;84;21443;-77
2021/11/27 00:14:17;;;;;;;20.70;11.38;;;;;;;2.56;85.84;95722.34;1678541;85;21021;-77
2021/11/27 00:16:43;;;;;;;21.90;11.10;;;;;;;2.52;88.48;95720.77;1678530;85;21022;-77
2021/11/27 00:19:14;;;;;;;21.73;11.97;;;;;;;2.50;87.57;95715.58;1681936;84;20998;-77
2021/11/27 00:21:43;;;;;;;20.12;11.33;;;;;;;2.50;86.29;95719.50;1682684;84;21499;-77
2021/11/27 00:24:09;;;;;;;24.10;11.40;;;;;;;2.47;85.73;95720.46;1683668;85;21515;-77
2021/11/27 00:26:36;;;;;;;17.12;10.63;;;;;;;2.43;85.67;95714.06;1678863;85;21522;-77
2021/11/27 00:29:04;;;;;;;22.27;11.03;;;;;;;2.41;85.45;95714.11;1681454;85;21049;-77
2021/11/27 00:31:31;;;;;;;21.37;10.72;;;;;;;2.36;85.61;95716.03;1682569;85;21450;-77
2021/11/27 00:33:58;;;;;;;18.75;10.85;;;;;;;2.31;85.49;95717.50;1678377;85;21041;-77
2021/11/27 00:36:26;;;;;;;18.98;10.32;;;;;;;2.25;85.50;95724.25;1672469;85;21135;-77
2021/11/27 00:38:53;;;;;;;18.60;10.68;;;;;;;2.21;85.47;95722.64;1678310;85;21447;-77
2021/11/27 00:41:21;;;;;;;19.57;10.78;;;;;;;2.16;85.51;95718.02;1683602;85;20993;-77
2021/11/27 00:43:49;;;;;;;19.57;10.25;;;;;;;2.13;85.92;95722.89;1683606;85;21038;-78
2021/11/27 00:46:16;;;;;;;16.87;9.80;;;;;;;2.08;86.29;95724.80;1683337;83;21010;-76
2021/11/27 00:48:44;;;;;;;18.73;10.65;;;;;;;2.07;86.11;95725.24;1658139;84;21041;-77
2021/11/27 00:51:15;;;;;;;19.42;10.80;;;;;;;2.04;86.48;95722.72;1648526;86;21026;-77
2021/11/27 00:53:44;;;;;;;19.77;11.10;;;;;;;2.04;86.58;95728.41;1676333;85;21029;-77
2021/11/27 00:56:11;;;;;;;17.52;10.60;;;;;;;2.07;86.42;95716.54;1687217;84;20970;-77
2021/11/27 00:58:38;;;;;;;21.00;10.32;;;;;;;2.07;86.39;95720.02;1688132;84;21013;-78
2021/11/27 01:01:10;;;;;;;18.85;10.95;;;;;;;2.11;87.19;95720.77;1676523;85;21026;-78
2021/11/27 01:03:41;;;;;;;16.93;9.78;;;;;;;2.14;86.65;95727.65;1657575;85;21013;-78
2021/11/27 01:06:10;;;;;;;17.32;10.28;;;;;;;2.18;86.88;95731.88;1652482;85;21522;-78
2021/11/27 01:08:40;;;;;;;20.20;10.48;;;;;;;2.23;87.13;95736.05;1667010;84;21018;-78
2021/11/27 01:11:22;;;;;;;17.55;9.33;;;;;;;2.31;87.28;95731.88;1682987;84;21415;-78
2021/11/27 01:13:50;;;;;;;19.15;10.63;;;;;;;2.37;87.37;95729.05;1682670;84;21033;-78
2021/11/27 01:16:20;;;;;;;18.62;9.83;;;;;;;2.46;87.56;95724.43;1672994;85;21005;-78
2021/11/27 01:18:48;;;;;;;19.85;10.43;;;;;;;2.47;87.52;95729.61;1643464;86;21542;-78
2021/11/27 01:21:20;;;;;;;20.30;10.40;;;;;;;2.49;88.12;95738.72;1631417;88;21009;-78
2021/11/27 01:23:49;;;;;;;21.12;11.30;;;;;;;2.53;87.52;95731.14;1631943;87;21009;-78
2021/11/27 01:26:17;;;;;;;17.70;9.73;;;;;;;2.54;88.01;95727.64;1648803;85;21387;-78
2021/11/27 01:28:44;;;;;;;16.10;9.50;;;;;;;2.57;87.26;95724.91;1688171;84;21001;-78
2021/11/27 01:31:11;;;;;;;17.75;9.43;;;;;;;2.58;87.64;95720.07;1684213;85;20986;-78
2021/11/27 01:33:39;;;;;;;23.07;10.45;;;;;;;2.59;87.29;95726.17;1684374;84;21112;-78
2021/11/27 01:36:07;;;;;;;21.23;10.35;;;;;;;2.61;86.96;95729.57;1672997;85;21057;-78
2021/11/27 01:38:36;;;;;;;17.90;10.00;;;;;;;2.59;87.14;95732.27;1669647;85;21001;-78
2021/11/27 01:41:03;;;;;;;18.70;10.18;;;;;;;2.60;86.83;95733.09;1669474;86;21171;-78
2021/11/27 01:43:32;;;;;;;20.45;11.25;;;;;;;2.58;86.62;95729.22;1676022;85;21005;-78
2021/11/27 01:45:59;;;;;;;18.52;10.10;;;;;;;2.57;86.68;95734.05;1681735;84;21046;-77
2021/11/27 01:48:27;;;;;;;19.20;10.30;;;;;;;2.57;86.60;95731.91;1658456;84;21013;-77
2021/11/27 01:51:00;;;;;;;20.37;11.15;;;;;;;2.55;87.12;95731.09;1682710;84;20999;-77
2021/11/27 01:53:30;;;;;;;19.60;11.40;;;;;;;2.53;87.09;95730.31;1684039;84;20994;-77
2021/11/27 01:56:03;;;;;;;20.25;10.50;;;;;;;2.50;86.80;95725.56;1713847;84;21490;-77
2021/11/27 01:58:31;;;;;;;20.90;11.78;;;;;;;2.45;87.14;95728.79;1689646;84;21057;-77
2021/11/27 02:01:03;;;;;;;22.30;11.45;;;;;;;2.42;87.15;95734.14;1708673;84;21073;-77
2021/11/27 02:03:30;;;;;;;17.00;9.65;;;;;;;2.41;87.16;95731.10;1673734;84;21081;-77
2021/11/27 02:06:04;;;;;;;18.82;10.95;;;;;;;2.41;87.37;95732.88;1687541;84;21095;-76
2021/11/27 02:08:31;;;;;;;15.90;10.03;;;;;;;2.39;87.15;95736.85;1684025;84;21022;-77
2021/11/27 02:11:00;;;;;;;19.95;10.82;;;;;;;2.35;87.01;95724.78;1679899;85;21037;-77
2021/11/27 02:13:27;;;;;;;20.20;11.18;;;;;;;2.33;86.70;95722.69;1701177;84;20996;-77
2021/11/27 02:15:54;;;;;;;19.12;11.12;;;;;;;2.28;87.44;95733.75;1687142;84;21026;-77
2021/11/27 02:18:21;;;;;;;17.12;10.03;;;;;;;2.28;87.90;95744.20;1689016;85;21490;-77
2021/11/27 02:21:01;;;;;;;18.87;10.03;;;;;;;2.26;88.77;95736.84;1689198;85;21017;-77
2021/11/27 02:23:30;;;;;;;17.12;9.43;;;;;;;2.22;88.21;95731.74;1692975;84;21073;-77
2021/11/27 02:26:01;;;;;;;17.65;10.05;;;;;;;2.22;87.74;95736.10;1679702;85;21447;-77
2021/11/27 02:28:31;;;;;;;17.20;10.93;;;;;;;2.22;87.61;95729.57;1686504;84;21447;-77
2021/11/27 02:30:58;;;;;;;16.87;10.38;;;;;;;2.19;87.48;95732.27;1684194;85;21059;-77
2021/11/27 02:33:26;;;;;;;17.77;10.55;;;;;;;2.19;88.04;95734.88;1674050;84;21009;-77
2021/11/27 02:35:53;;;;;;;18.55;10.30;;;;;;;2.17;88.09;95732.34;1693784;84;20965;-77
2021/11/27 02:38:20;;;;;;;19.55;10.75;;;;;;;2.24;88.09;95731.66;1683282;84;21342;-77
2021/11/27 02:40:47;;;;;;;15.85;9.60;;;;;;;2.30;87.84;95728.88;1680246;85;21162;-77
2021/11/27 02:43:15;;;;;;;17.35;9.88;;;;;;;2.36;87.68;95735.63;1646714;87;20981;-77
2021/11/27 02:45:42;;;;;;;17.87;9.90;;;;;;;2.43;87.57;95735.84;1667854;86;21019;-77
2021/11/27 02:48:08;;;;;;;17.67;9.88;;;;;;;2.52;87.67;95738.59;1678927;85;21092;-77
2021/11/27 02:50:35;;;;;;;13.65;9.40;;;;;;;2.60;87.68;95736.58;1676925;86;21049;-77
2021/11/27 02:53:02;;;;;;;16.07;9.43;;;;;;;2.66;88.01;95732.91;1686594;84;20950;-76
2021/11/27 02:55:28;;;;;;;14.75;8.83;;;;;;;2.75;88.11;95733.03;1689949;84;21064;-77
2021/11/27 02:57:55;;;;;;;16.15;9.00;;;;;;;2.84;88.54;95747.55;1682215;85;21474;-77
2021/11/27 03:00:24;;;;;;;15.95;8.45;;;;;;;2.93;88.43;95743.73;1645419;87;21058;-77
2021/11/27 03:02:51;;;;;;;15.50;8.83;;;;;;;3.00;87.98;95746.55;1633295;87;21006;-77
2021/11/27 03:05:19;;;;;;;16.20;9.50;;;;;;;3.04;88.06;95735.91;1625724;87;20994;-77
2021/11/27 03:07:47;;;;;;;14.73;8.13;;;;;;;3.04;87.90;95733.28;1634971;87;21443;-77
2021/11/27 03:10:17;;;;;;;16.50;9.20;;;;;;;3.04;87.96;95737.69;1618135;87;21451;-77
2021/11/27 03:12:45;;;;;;;14.25;8.38;;;;;;;3.01;87.89;95744.33;1648419;86;21042;-77
2021/11/27 03:15:16;;;;;;;17.75;10.23;;;;;;;2.99;87.63;95750.08;1648028;86;21455;-78
2021/11/27 03:17:45;;;;;;;17.23;10.78;;;;;;;2.92;87.31;95752.06;1675605;86;20998;-78
2021/11/27 03:20:15;;;;;;;17.25;10.30;;;;;;;2.88;87.30;95751.77;1671882;84;21002;-77
2021/11/27 03:22:42;;;;;;;19.67;11.78;;;;;;;2.85;87.10;95759.27;1674528;85;21419;-77
2021/11/27 03:25:11;;;;;;;19.57;11.38;;;;;;;2.83;86.95;95760.23;1686888;85;21092;-77
2021/11/27 03:27:40;;;;;;;24.32;12.63;;;;;;;2.83;87.11;95771.53;1681706;85;21006;-78
2021/11/27 03:30:13;;;;;;;26.97;14.25;;;;;;;2.81;86.89;95760.72;1677309;84;21064;-77
2021/11/27 03:32:40;;;;;;;25.37;13.88;;;;;;;2.81;86.89;95758.97;1685620;84;21009;-78
2021/11/27 03:35:10;;;;;;;29.00;15.15;;;;;;;2.75;86.98;95761.80;1707267;83;21005;-78
2021/11/27 03:37:39;;;;;;;27.00;14.58;;;;;;;2.75;87.01;95763.11;1649408;87;21037;-77
2021/11/27 03:40:09;;;;;;;29.37;16.65;;;;;;;2.74;87.34;95761.41;1669851;84;21587;-78
2021/11/27 03:42:36;;;;;;;28.42;15.90;;;;;;;2.74;87.08;95772.70;1676876;86;21463;-78
2021/11/27 03:45:07;;;;;;;34.00;17.70;;;;;;;2.71;87.11;95770.22;1677793;84;20994;-78
2021/11/27 03:47:34;;;;;;;35.28;17.60;;;;;;;2.71;86.98;95774.14;1666582;85;21050;-78
2021/11/27 03:50:01;;;;;;;35.15;18.57;;;;;;;2.72;87.11;95768.44;1657484;86;21057;-78
2021/11/27 03:52:27;;;;;;;34.60;19.23;;;;;;;2.73;88.06;95769.70;1681596;85;21069;-77
2021/11/27 03:54:54;;;;;;;35.30;20.27;;;;;;;2.70;87.36;95763.25;1689049;85;21033;-79
2021/11/27 03:57:21;;;;;;;33.88;17.50;;;;;;;2.69;87.50;95772.48;1689242;83;21001;-76
2021/11/27 03:59:47;;;;;;;34.20;17.52;;;;;;;2.70;87.13;95769.80;1677058;86;21034;-77
2021/11/27 04:02:14;;;;;;;32.00;17.15;;;;;;;2.71;87.14;95764.13;1681435;84;21005;-77
2021/11/27 04:04:42;;;;;;;32.20;17.45;;;;;;;2.75;87.02;95758.72;1684449;84;21006;-78
2021/11/27 04:07:10;;;;;;;31.05;17.02;;;;;;;2.74;88.59;95764.86;1675255;85;21479;-77
2021/11/27 04:09:37;;;;;;;31.73;17.00;;;;;;;2.73;87.47;95755.31;1682708;84;21026;-78
2021/11/27 04:12:05;;;;;;;30.40;16.62;;;;;;;2.77;87.96;95766.08;1669322;85;21446;-77
2021/11/27 04:14:40;;;;;;;31.17;16.25;;;;;;;2.77;88.73;95772.61;1689213;84;21067;-76
2021/11/27 04:17:07;;;;;;;31.02;16.23;;;;;;;2.81;87.71;95779.03;1678107;84;21407;-76
2021/11/27 04:19:33;;;;;;;30.80;15.90;;;;;;;2.85;87.62;95789.35;1683926;83;20993;-77
2021/11/27 04:22:01;;;;;;;30.12;16.30;;;;;;;2.89;87.52;95786.17;1685429;83;21021;-77
2021/11/27 04:24:28;;;;;;;27.82;16.05;;;;;;;2.93;87.46;95790.84;1684405;84;20948;-77
2021/11/27 04:26:54;;;;;;;32.60;17.10;;;;;;;2.96;87.40;95794.66;1677045;83;21069;-78
2021/11/27 04:29:23;;;;;;;30.97;16.05;;;;;;;3.00;87.42;95789.73;1677118;86;21017;-77
2021/11/27 04:31:50;;;;;;;30.12;16.15;;;;;;;3.03;87.37;95787.85;1677224;84;21064;-77
2021/11/27 04:34:17;;;;;;;27.07;15.13;;;;;;;3.10;87.12;95792.86;1677258;86;21037;-77
2021/11/27 04:36:43;;;;;;;26.27;14.93;;;;;;;3.12;86.97;95789.75;1667769;85;21013;-76
2021/11/27 04:39:10;;;;;;;26.23;15.65;;;;;;;3.12;87.40;95785.83;1664788;86;21029;-77
2021/11/27 04:41:36;;;;;;;26.12;15.63;;;;;;;3.16;87.22;95783.50;1665314;85;21038;-77
2021/11/27 04:44:03;;;;;;;28.20;14.60;;;;;;;3.18;87.08;95781.67;1689151;85;20993;-77
2021/11/27 04:46:29;;;;;;;27.60;15.20;;;;;;;3.20;86.96;95790.31;1697573;83;21017;-77
2021/11/27 04:48:56;;;;;;;26.42;14.95;;;;;;;3.23;86.78;95795.45;1693687;84;21471;-77
2021/11/27 04:51:22;;;;;;;29.25;15.53;;;;;;;3.24;86.78;95793.70;1683533;84;21049;-77
2021/11/27 04:53:50;;;;;;;25.55;13.83;;;;;;;3.26;86.78;95795.35;1683324;85;21010;-77
2021/11/27 04:56:17;;;;;;;25.88;15.18;;;;;;;3.27;87.22;95790.95;1674032;85;21007;-77
2021/11/27 04:58:45;;;;;;;26.97;15.50;;;;;;;3.29;87.09;95797.00;1669199;85;21104;-77
2021/11/27 05:01:12;;;;;;;25.60;15.25;;;;;;;3.25;87.28;95807.18;1670117;85;21005;-77
2021/11/27 05:03:50;;;;;;;28.80;15.80;;;;;;;3.27;87.01;95817.13;1680702;84;21037;-77
2021/11/27 05:06:16;;;;;;;30.17;16.70;;;;;;;3.26;87.23;95811.50;1683065;85;21387;-78
2021/11/27 05:08:45;;;;;;;28.92;15.53;;;;;;;3.28;87.14;95814.94;1683504;85;21034;-77
2021/11/27 05:11:12;;;;;;;27.10;15.15;;;;;;;3.28;87.69;95804.46;1670909;85;20982;-78
2021/11/27 05:13:39;;;;;;;27.75;15.60;;;;;;;3.27;87.89;95816.69;1673734;85;21064;-78
2021/11/27 05:16:08;;;;;;;29.77;16.70;;;;;;;3.27;88.35;95825.84;1683459;85;21009;-78
2021/11/27 05:18:36;;;;;;;27.22;15.05;;;;;;;3.29;87.44;95817.47;1683468;85;21052;-78
2021/11/27 05:21:05;;;;;;;27.93;17.50;;;;;;;3.31;87.78;95813.50;1683280;84;21041;-78
2021/11/27 05:23:32;;;;;;;26.95;16.27;;;;;;;3.28;88.25;95816.24;1681193;85;20974;-78
2021/11/27 05:26:00;;;;;;;31.45;17.07;;;;;;;3.30;87.48;95815.28;1669472;85;21475;-78
2021/11/27 05:28:45;;;;;;;30.27;17.17;;;;;;;3.35;87.32;95816.85;1667273;85;21089;-78
2021/11/27 05:31:25;;;;;;;31.65;16.95;;;;;;;3.39;87.29;95825.00;1651006;84;21088;-78
2021/11/27 05:36:34;;;;;;;28.15;15.95;;;;;;;3.42;87.60;95823.59;1683651;85;20998;-78
2021/11/27 05:39:03;;;;;;;30.97;16.37;;;;;;;3.47;87.90;95819.48;1683590;85;21013;-77
2021/11/27 05:41:30;;;;;;;25.62;16.12;;;;;;;3.50;87.65;95809.77;1683538;85;21061;-78
2021/11/27 05:43:59;;;;;;;30.48;16.20;;;;;;;3.58;87.88;95821.72;1683619;85;21065;-77
2021/11/27 05:46:26;;;;;;;26.73;15.83;;;;;;;3.62;87.65;95816.77;1683767;84;21080;-77
2021/11/27 05:48:52;;;;;;;28.77;15.43;;;;;;;3.69;87.64;95823.03;1693441;85;21026;-77
2021/11/27 05:51:31;;;;;;;28.85;16.35;;;;;;;3.77;87.72;95828.42;1684775;84;21404;-77
2021/11/27 05:53:58;;;;;;;28.17;15.28;;;;;;;3.83;87.79;95827.74;1680838;85;20986;-76
2021/11/27 05:56:24;;;;;;;29.82;16.50;;;;;;;3.89;87.80;95825.80;1677530;85;21033;-76
2021/11/27 05:58:50;;;;;;;29.77;15.78;;;;;;;3.93;87.65;95841.37;1674493;85;21045;-77
2021/11/27 06:01:17;;;;;;;26.62;15.40;;;;;;;3.95;87.68;95842.62;1679204;84;21003;-77
2021/11/27 06:03:44;;;;;;;28.80;16.20;;;;;;;3.96;87.65;95848.26;1675543;85;21029;-77
2021/11/27 06:06:10;;;;;;;30.05;15.78;;;;;;;3.96;87.64;95836.47;1693580;85;21482;-77
2021/11/27 06:08:37;;;;;;;26.55;16.45;;;;;;;3.88;88.07;95838.06;1693524;85;21010;-77
2021/11/27 06:11:05;;;;;;;31.37;17.57;;;;;;;3.91;87.79;95834.48;1693621;85;21008;-77
2021/11/27 06:13:32;;;;;;;26.20;16.45;;;;;;;3.94;87.80;95839.14;1674102;85;20994;-77
2021/11/27 06:15:58;;;;;;;27.58;16.65;;;;;;;3.95;87.76;95847.39;1670006;86;21087;-78
2021/11/27 06:18:24;;;;;;;25.82;15.88;;;;;;;3.96;87.48;95846.95;1672389;85;21018;-77
2021/11/27 06:20:51;;;;;;;28.45;16.45;;;;;;;3.98;87.69;95850.35;1687726;83;20962;-77
2021/11/27 06:23:17;;;;;;;30.52;17.70;;;;;;;4.00;87.42;95845.92;1691104;85;20958;-77
2021/11/27 06:25:44;;;;;;;30.35;18.10;;;;;;;3.99;88.69;95850.77;1691051;85;21025;-77
2021/11/27 06:28:10;;;;;;;29.72;17.73;;;;;;;4.00;87.74;95856.84;1691194;85;21408;-77
2021/11/27 06:30:40;;;;;;;32.88;18.65;;;;;;;4.03;87.70;95857.58;1688167;83;21038;-78
2021/11/27 06:33:05;;;;;;;28.80;17.30;;;;;;;4.07;87.62;95863.11;1655116;84;21013;-77
2021/11/27 06:35:31;;;;;;;29.45;17.48;;;;;;;4.14;87.58;95864.18;1648235;86;21046;-77
2021/11/27 06:37:58;;;;;;;27.32;17.25;;;;;;;4.17;87.69;95873.25;1648447;86;21392;-78
2021/11/27 06:40:25;;;;;;;28.85;17.57;;;;;;;4.23;87.47;95876.94;1654494;84;21048;-77
2021/11/27 06:43:02;;;;;;;30.05;17.85;;;;;;;4.28;87.49;95882.02;1670211;85;21061;-77
2021/11/27 06:45:45;;;;;;;28.80;16.82;;;;;;;4.34;87.46;95887.02;1638684;87;21073;-77
2021/11/27 06:48:11;;;;;;;31.15;17.32;;;;;;;4.41;87.55;95875.39;1672396;85;21036;-76
2021/11/27 06:50:38;;;;;;;28.52;16.80;;;;;;;4.47;87.62;95888.26;1683506;84;21427;-78
2021/11/27 06:53:05;;;;;;;29.85;16.82;;;;;;;4.54;87.68;95886.70;1683711;84;21132;-78
2021/11/27 06:55:32;;;;;;;29.23;17.98;;;;;;;4.61;87.65;95881.14;1683402;85;21057;-78
2021/11/27 06:57:59;;;;;;;26.23;16.65;;;;;;;4.70;87.40;95884.32;1683095;85;21018;-77
2021/11/27 07:00:25;;;;;;;27.82;15.95;;;;;;;4.78;87.45;95898.00;1682344;85;21080;-78
2021/11/27 07:02:57;;;;;;;29.77;18.42;;;;;;;4.85;87.45;95887.63;1672518;83;21026;-77
2021/11/27 07:05:41;;;;;;;27.62;17.12;;;;;;;4.93;87.18;95899.58;1669026;86;21089;-78
2021/11/27 07:08:10;;;;;;;30.82;16.95;;;;;;;4.98;87.15;95904.20;1671744;86;21069;-78
2021/11/27 07:10:43;;;;;;;31.23;17.67;;;;;;;5.01;87.07;95901.44;1676643;85;21078;-78
2021/11/27 07:13:19;;;;;;;27.87;16.82;;;;;;;5.03;86.86;95900.94;1677972;85;21053;-77
2021/11/27 07:15:48;;;;;;;32.65;18.65;;;;;;;5.07;86.81;95907.73;1678665;85;21026;-77
2021/11/27 07:18:15;;;;;;;29.82;17.65;;;;;;;5.08;86.62;95909.92;1671568;85;20982;-76
2021/11/27 07:20:41;;;;;;;29.48;18.25;;;;;;;5.08;86.46;95917.80;1673001;85;21471;-76
2021/11/27 07:23:09;;;;;;;29.77;18.20;;;;;;;5.09;86.34;95916.87;1669257;85;21085;-76
2021/11/27 07:25:38;;;;;;;30.02;17.98;;;;;;;5.11;86.31;95922.93;1669586;85;21093;-76
2021/11/27 07:28:23;;;;;;;31.10;17.65;;;;;;;5.10;86.13;95918.13;1652303;85;21046;-76
2021/11/27 07:30:49;;;;;;;36.00;21.07;;;;;;;5.11;85.97;95922.93;1643413;85;21073;-77
2021/11/27 07:33:17;;;;;;;34.25;20.12;;;;;;;5.09;85.92;95915.11;1675300;85;21471;-77
2021/11/27 07:35:44;;;;;;;32.73;20.05;;;;;;;5.13;86.03;95914.52;1673156;84;21036;-77
2021/11/27 07:38:11;;;;;;;37.38;21.37;;;;;;;5.15;85.99;95918.79;1664703;84;21063;-77
2021/11/27 07:40:37;;;;;;;32.78;19.02;;;;;;;5.18;85.97;95920.43;1688011;84;21053;-77
2021/11/27 07:43:05;;;;;;;33.67;19.00;;;;;;;5.22;85.96;95921.16;1674481;84;20981;-77
2021/11/27 07:45:36;;;;;;;32.58;18.20;;;;;;;5.23;85.98;95924.20;1675219;84;21017;-77
2021/11/27 07:48:18;;;;;;;32.40;17.60;;;;;;;5.24;85.87;95936.41;1668980;85;21069;-77
2021/11/27 07:51:04;;;;;;;31.35;18.90;;;;;;;5.28;85.85;95931.42;1669353;86;21034;-77
2021/11/27 07:53:41;;;;;;;32.17;18.52;;;;;;;5.33;86.01;95930.77;1669208;86;21319;-77
2021/11/27 07:56:08;;;;;;;30.17;18.23;;;;;;;5.39;86.03;95927.01;1678597;85;20971;-78
2021/11/27 07:58:35;;;;;;;36.50;19.95;;;;;;;5.50;85.98;95928.74;1680396;84;21426;-79
2021/11/27 08:01:01;;;;;;;29.35;19.32;;;;;;;5.65;85.93;95925.06;1681043;84;20978;-77
2021/11/27 08:03:28;;;;;;;37.10;20.85;;;;;;;5.77;85.74;95918.42;1678345;84;20988;-76
2021/11/27 08:05:54;;;;;;;33.28;19.73;;;;;;;5.93;85.71;95914.63;1663624;84;21009;-76
2021/11/27 08:08:21;;;;;;;28.95;18.92;;;;;;;6.06;85.77;95907.94;1669995;84;21026;-75
2021/11/27 08:10:48;;;;;;;37.93;21.40;;;;;;;6.25;85.75;95903.61;1674303;84;21473;-75
2021/11/27 08:13:15;;;;;;;31.10;19.25;;;;;;;6.43;85.60;95909.33;1683360;84;20957;-76
2021/11/27 08:15:42;;;;;;;33.02;19.98;;;;;;;6.63;85.42;95905.36;1672749;84;21065;-78
2021/11/27 08:18:09;;;;;;;28.57;19.75;;;;;;;6.83;84.66;95903.97;1657400;85;21024;-77
2021/11/27 08:20:37;;;;;;;29.37;18.02;;;;;;;7.04;85.01;95902.52;1670353;84;21005;-78
2021/11/27 08:23:05;;;;;;;76.55;44.27;;;;;;;7.26;84.80;95911.53;1672349;84;20969;-81
2021/11/27 08:25:33;;;;;;;34.45;20.82;;;;;;;7.55;84.54;95912.78;1665023;84;21025;-80
2021/11/27 08:27:59;;;;;;;25.52;14.83;;;;;;;7.81;84.24;95915.84;1666261;83;21012;-75
2021/11/27 08:30:27;;;;;;;8.63;5.53;;;;;;;8.04;83.56;95909.36;1669400;84;21000;-77
2021/11/27 08:32:55;;;;;;;6.20;4.37;;;;;;;8.29;78.87;95909.36;1683642;84;20981;-76
2021/11/27 08:35:21;;;;;;;5.45;3.30;;;;;;;8.43;79.59;95899.39;1666628;85;21067;-75
2021/11/27 08:37:48;;;;;;;4.50;2.62;;;;;;;8.57;79.52;95902.15;1659976;86;21025;-76
2021/11/27 08:40:15;;;;;;;5.20;3.02;;;;;;;8.71;79.10;95899.19;1659640;84;21024;-75
2021/11/27 08:42:44;;;;;;;5.00;2.95;;;;;;;8.82;79.86;95896.81;1633188;87;21027;-76
2021/11/27 08:45:13;;;;;;;14.00;9.23;;;;;;;8.91;79.30;95909.10;1631109;86;21131;-78
2021/11/27 08:47:41;;;;;;;6.28;4.22;;;;;;;9.00;79.39;95905.11;1669424;85;21276;-77
2021/11/27 08:50:10;;;;;;;7.87;4.25;;;;;;;9.09;78.73;95908.52;1679116;85;21006;-77
2021/11/27 08:52:38;;;;;;;6.55;3.50;;;;;;;9.16;76.07;95918.27;1676388;84;20998;-76
2021/11/27 08:55:06;;;;;;;4.65;3.27;;;;;;;9.20;73.38;95923.30;1679704;84;22243;-76
2021/11/27 08:57:34;;;;;;;5.33;3.92;;;;;;;9.27;75.38;95918.52;1680681;84;20990;-76
2021/11/27 09:00:03;;;;;;;5.60;3.80;;;;;;;9.29;74.87;95915.30;1670285;84;21068;-76
2021/11/27 09:02:30;;;;;;;6.45;4.00;;;;;;;9.30;73.00;95923.61;1663262;84;21052;-77
2021/11/27 09:04:56;;;;;;;6.55;4.10;;;;;;;9.27;72.00;95926.45;1660655;86;21042;-79
2021/11/27 09:07:23;;;;;;;5.15;3.67;;;;;;;9.30;73.20;95936.83;1665654;84;21050;-76
2021/11/27 09:09:51;;;;;;;6.17;4.22;;;;;;;9.28;71.98;95925.96;1676046;84;21084;-80
2021/11/27 09:12:21;;;;;;;5.28;2.92;;;;;;;9.28;72.76;95925.96;1668236;84;21101;-78
2021/11/27 09:14:53;;;;;;;3.77;2.83;;;;;;;9.27;71.72;95933.06;1676563;84;21144;-77
2021/11/27 09:17:22;;;;;;;4.83;2.95;;;;;;;9.29;72.34;95930.30;1673181;85;21390;-77
2021/11/27 09:19:48;;;;;;;3.67;2.67;;;;;;;9.30;71.71;95926.74;1655299;84;21089;-77
2021/11/27 09:22:15;;;;;;;5.45;2.45;;;;;;;9.30;71.71;95926.25;1665929;84;21579;-75
2021/11/27 09:24:42;;;;;;;5.10;2.85;;;;;;;9.34;71.36;95923.82;1686577;83;21069;-76
2021/11/27 09:27:09;;;;;;;2.85;2.30;;;;;;;9.35;71.62;95918.91;1679476;84;21071;-77
2021/11/27 09:29:39;;;;;;;3.90;2.10;;;;;;;9.33;71.62;95923.90;1666118;84;20989;-77
2021/11/27 09:32:11;;;;;;;4.33;2.25;;;;;;;9.29;71.67;95925.88;1675783;84;21033;-76
2021/11/27 09:34:39;;;;;;;4.53;2.60;;;;;;;9.26;71.45;95922.08;1672571;84;21061;-77
2021/11/27 09:37:07;;;;;;;3.77;2.55;;;;;;;9.23;71.66;95920.95;1676412;84;21073;-77
2021/11/27 09:39:35;;;;;;;5.20;3.00;;;;;;;9.24;72.21;95912.08;1676901;84;21302;-76
2021/11/27 09:42:02;;;;;;;3.75;2.50;;;;;;;9.29;72.75;95913.98;1656166;84;21005;-76
2021/11/27 09:44:34;;;;;;;3.65;2.70;;;;;;;9.35;71.97;95908.82;1649488;85;21021;-78
2021/11/27 09:47:02;;;;;;;5.17;2.80;;;;;;;9.40;71.35;95912.50;1640697;86;21093;-80
2021/11/27 09:49:29;;;;;;;3.00;2.02;;;;;;;9.49;72.46;95907.55;1639739;86;21089;-80
2021/11/27 09:51:56;;;;;;;4.00;2.42;;;;;;;9.61;71.40;95913.04;1648903;85;21030;-80
2021/11/27 09:54:24;;;;;;;4.95;2.35;;;;;;;9.67;71.01;95917.13;1640760;87;21046;-80
2021/11/27 09:56:55;;;;;;;3.35;2.00;;;;;;;9.75;71.70;95917.49;1650141;85;21049;-80
2021/11/27 09:59:26;;;;;;;2.20;1.30;;;;;;;9.82;71.51;95920.17;1669763;85;20994;-80
2021/11/27 10:01:56;;;;;;;2.98;1.40;;;;;;;9.83;69.13;95921.00;1669401;86;21049;-78
2021/11/27 10:04:26;;;;;;;5.40;2.30;;;;;;;9.83;70.09;95927.16;1669332;85;21025;-79
2021/11/27 10:06:57;;;;;;;1.80;1.35;;;;;;;9.80;70.62;95928.65;1672489;85;21026;-79
2021/11/27 10:09:24;;;;;;;2.77;1.40;;;;;;;9.76;70.42;95941.22;1651819;85;21037;-79
2021/11/27 10:11:53;;;;;;;3.00;1.60;;;;;;;9.74;69.95;95950.19;1673647;85;21013;-79
2021/11/27 10:14:21;;;;;;;3.62;1.70;;;;;;;9.73;70.26;95958.61;1678232;84;21053;-79
2021/11/27 10:17:09;;;;;;;7.22;3.15;;;;;;;9.73;68.74;95956.42;1686111;85;21062;-79
2021/11/27 10:19:47;;;;;;;2.83;1.92;;;;;;;9.78;69.76;95951.71;1675889;84;21057;-79
2021/11/27 10:22:22;;;;;;;2.98;1.62;;;;;;;9.84;68.04;95965.89;1668859;86;21423;-80
2021/11/27 10:24:50;;;;;;;4.95;2.22;;;;;;;9.86;67.33;95965.34;1668858;85;21017;-79
2021/11/27 10:27:29;;;;;;;3.30;2.10;;;;;;;9.89;67.17;95972.25;1668850;84;21010;-79
2021/11/27 10:30:08;;;;;;;3.30;2.17;;;;;;;9.91;66.15;95967.70;1679537;84;21127;-77
2021/11/27 10:32:41;;;;;;;4.35;2.50;;;;;;;9.99;68.62;95973.86;1673194;84;21013;-78
2021/11/27 10:35:16;;;;;;;4.20;2.35;;;;;;;10.07;66.59;95966.31;1671944;84;21018;-79
2021/11/27 10:37:47;;;;;;;2.17;1.50;;;;;;;10.21;67.57;95973.91;1670091;84;20962;-82
2021/11/27 10:40:31;;;;;;;2.33;1.52;;;;;;;10.33;66.12;95990.34;1670605;83;21006;-78
2021/11/27 10:43:05;;;;;;;2.12;1.67;;;;;;;10.47;64.03;95990.02;1677443;84;20973;-78
2021/11/27 10:45:38;;;;;;;2.27;1.47;;;;;;;10.48;65.09;95997.88;1675280;84;21460;-78
2021/11/27 10:48:16;;;;;;;2.40;1.35;;;;;;;10.47;61.83;96009.88;1676523;84;20989;-78
2021/11/27 10:50:49;;;;;;;1.90;1.50;;;;;;;10.53;63.14;96014.79;1670413;83;21046;-79
2021/11/27 10:53:21;;;;;;;2.30;2.00;;;;;;;10.51;61.86;96010.08;1669157;85;21064;-78
2021/11/27 10:55:47;;;;;;;3.20;1.80;;;;;;;10.55;63.72;96007.62;1685315;84;21403;-78
2021/11/27 10:58:15;;;;;;;1.75;1.55;;;;;;;10.52;63.23;96013.09;1665778;85;20954;-78
2021/11/27 11:00:50;;;;;;;2.15;1.55;;;;;;;10.47;62.50;96024.44;1688635;84;21048;-82
2021/11/27 11:03:35;;;;;;;2.85;1.80;;;;;;;10.45;61.34;96015.72;1688469;85;21001;-77
2021/11/27 11:06:25;;;;;;;4.67;1.50;;;;;;;10.53;62.31;96018.77;1671107;85;20978;-78
2021/11/27 11:08:58;;;;;;;1.98;1.40;;;;;;;10.56;58.49;96025.20;1672789;84;21018;-76
2021/11/27 11:11:28;;;;;;;2.08;1.80;;;;;;;10.69;58.68;96025.30;1668992;85;21108;-77
2021/11/27 11:13:59;;;;;;;2.83;1.65;;;;;;;10.70;57.89;96011.09;1669511;86;21010;-77
2021/11/27 11:16:29;;;;;;;2.42;1.50;;;;;;;10.84;58.06;96018.21;1655842;86;21044;-76
2021/11/27 11:19:20;;;;;;;1.70;1.60;;;;;;;11.19;57.45;96024.40;1635029;85;20998;-70
2021/11/27 11:22:13;;;;;;;1.60;1.50;;;;;;;11.96;53.90;96030.09;1676536;84;21002;-74
2021/11/27 11:24:45;;;;;;;2.35;1.50;;;;;;;12.36;54.61;96022.56;1687798;85;20988;-74
2021/11/27 11:27:40;;;;;;;1.98;1.77;;;;;;;12.35;55.29;96019.55;1660291;85;21104;-74
2021/11/27 11:30:08;;;;;;;2.10;1.40;;;;;;;13.68;55.47;96010.64;1685543;85;21032;-75
2021/11/27 11:32:37;;;;;;;1.55;1.40;;;;;;;14.89;48.16;96009.11;1679857;85;21037;-75
2021/11/27 11:35:04;;;;;;;2.90;1.65;;;;;;;15.94;45.53;96006.48;1625181;88;20993;-75
2021/11/27 11:37:31;;;;;;;2.42;1.60;;;;;;;15.69;43.51;96021.84;1671918;85;21046;-75
2021/11/27 11:39:58;;;;;;;2.08;1.87;;;;;;;15.39;44.32;96032.72;1670649;85;21436;-75
2021/11/27 11:42:25;;;;;;;1.70;1.60;;;;;;;15.94;45.12;96035.02;1669882;85;21163;-75